up.ac.za alexa rank chart, up.ac.za alexa rank daily changes

up.ac.za alexa rank chart, up.ac.za alexa rank daily changes

up.ac.za
Actual rank:
5 498

RANK HISTORY

Date Rank Diff
2017/06/27 5 498 +25
2017/06/26 5 473 +55
2017/06/25 5 418 +38
2017/06/24 5 380 +41
2017/06/23 5 339 +35
2017/06/22 5 304 +12
2017/06/21 5 292 -1
2017/06/20 5 293 -5
2017/06/19 5 298 +20
2017/06/18 5 278 -11
2017/06/17 5 289 +59
2017/06/16 5 230 +14
2017/06/15 5 216 +1
2017/06/14 5 215 -33
2017/06/13 5 248 -20
2017/06/12 5 268 -7
2017/06/11 5 275 -25
2017/06/10 5 300 +14
2017/06/09 5 286 +26
2017/06/08 5 260 +18
2017/06/07 5 242 -17
2017/06/06 5 259 -17
2017/06/05 5 276 -5
2017/06/04 5 281 +8
2017/06/03 5 273 -10
2017/06/02 5 283 -21
2017/06/01 5 304 -4
2017/05/31 5 308 -56
2017/05/30 5 364 -59
2017/05/29 5 423 -35
2017/05/28 5 458 -34
2017/05/27 5 492 +29
2017/05/26 5 463 -21
2017/05/25 5 484 +17
2017/05/23 5 467 -70
2017/05/21 5 537 +9
2017/05/20 5 528 -33
2017/05/19 5 561 -59
2017/05/18 5 620 -88
2017/05/17 5 708 -96
2017/05/16 5 804 -115
2017/05/15 5 919 -100
2017/05/14 6 019 -48
2017/05/13 6 067 -103
2017/05/12 6 170 -74
2017/05/11 6 244 -83
2017/05/10 6 327 -115
2017/05/09 6 442 -106
2017/05/08 6 548 -70
2017/05/07 6 618 +5
2017/05/06 6 613 -30
2017/05/05 6 643 +30
2017/05/04 6 613 +47
2017/05/03 6 566 -29
2017/05/02 6 595 -28
2017/05/01 6 623 +38
2017/04/30 6 585 +43
2017/04/29 6 542 +2
2017/04/28 6 540

WIDGET FOR YOUR SITE

DOMAINS WITH THE NEAREST RANK

Domain Rank
lulus.com 5 493
ojogo.pt 5 494
igetsend.ru 5 495
grabon.in 5 496
speedvid.net 5 497
up.ac.za 5 498
thegioinoithat.com 5 499
ipsosinteractive.com 5 500
ultrasawt.com 5 501
brainly.lat 5 502
pluto.tv 5 503

DOMAINS WITH THE NEAREST RANK BY TLD .ac.za

Domain Rank
up.ac.za 5 498
uct.ac.za 6 119
unisa.ac.za 6 165
nwu.ac.za 6 710
wits.ac.za 7 473
uj.ac.za 7 723